KFXY/FXY METAR and TAF weather

Enter ICAO airport designator
Station Type Date Time Source
KFXY METAR 2020/01/29 12:55 UTC NOAA

KFXY 291255Z AUTO 00000KT 1 1/4SM BR OVC002 M08/M08 A3016 RMK AO2


Station Type Date Time Source
KFXY Decoded METAR 2020/01/29 12:55 UTC NOAA

Station name not available
Jan 29, 2020 - 07:55 AM EST / 2020.01.29 1255 UTC
Wind: Calm:0
Visibility: 1 1/4 mile(s):0
Sky conditions: overcast
Weather: mist
Temperature: 17 F (-8 C)
Dew Point: 17 F (-8 C)
Relative Humidity: 100%
Pressure (altimeter): 30.16 in. Hg (1021 hPa)
ob: KFXY 291255Z AUTO 00000KT 1 1/4SM BR OVC002 M08/M08 A3016 RMK AO2
cycle: 13

Station Type Date Time Source
KFXY TAF UTC NOAA

Error!

Example: see airport list